< < Back
Terminal Aerodrome Forecast


Current Version              Previous Versions:   1  2  3  4  5  6  7  8  9  

Terminal Aerodrome Forecast

894
FTUS42 KTAE 231100
TAFDHN
TAF
KDHN 231122Z 2312/2412 32004KT 3SM BR SCT007 SCT100
     FM231300 35006KT P6SM SCT040=

Latest METAR

401
SAUS70 KWBC 241400 RRA
MTRDHN
METAR KDHN 241353Z 10006KT 10SM OVC075 21/10 A3004 RMK AO2 SLP168
T02110100


USA.gov is the U.S. government's official web portal to all federal, state and local government web resources and services.